sensor_id;sensor_type;location;lat;lon;timestamp;temperature;humidity
10864;DHT22;5485;37.558;126.950;2023-09-12T00:01:11;31.80;1.00
10864;DHT22;5485;37.558;126.950;2023-09-12T00:03:38;31.80;1.00
10864;DHT22;5485;37.558;126.950;2023-09-12T00:06:05;31.50;1.00
10864;DHT22;5485;37.558;126.950;2023-09-12T00:08:35;31.60;1.00
10864;DHT22;5485;37.558;126.950;2023-09-12T00:11:07;31.70;1.00
10864;DHT22;5485;37.558;126.950;2023-09-12T00:13:38;31.80;1.00
10864;DHT22;5485;37.558;126.950;2023-09-12T00:16:06;31.70;1.00
10864;DHT22;5485;37.558;126.950;2023-09-12T00:18:36;31.70;1.00
10864;DHT22;5485;37.558;126.950;2023-09-12T00:21:03;31.30;1.00
10864;DHT22;5485;37.558;126.950;2023-09-12T00:23:30;31.10;1.00
10864;DHT22;5485;37.558;126.950;2023-09-12T00:25:57;31.10;1.00
10864;DHT22;5485;37.558;126.950;2023-09-12T00:28:24;30.70;1.00
10864;DHT22;5485;37.558;126.950;2023-09-12T00:30:52;30.40;1.00
10864;DHT22;5485;37.558;126.950;2023-09-12T00:33:19;30.50;1.00
10864;DHT22;5485;37.558;126.950;2023-09-12T00:35:45;30.80;1.00
10864;DHT22;5485;37.558;126.950;2023-09-12T00:38:12;31.00;1.00
10864;DHT22;5485;37.558;126.950;2023-09-12T00:40:39;31.10;1.00
10864;DHT22;5485;37.558;126.950;2023-09-12T00:43:06;31.00;1.00
10864;DHT22;5485;37.558;126.950;2023-09-12T00:45:36;31.20;1.00
10864;DHT22;5485;37.558;126.950;2023-09-12T00:48:05;31.40;1.00
10864;DHT22;5485;37.558;126.950;2023-09-12T00:50:33;31.70;1.00
10864;DHT22;5485;37.558;126.950;2023-09-12T00:53:01;31.70;1.00
10864;DHT22;5485;37.558;126.950;2023-09-12T00:55:31;31.50;1.00
10864;DHT22;5485;37.558;126.950;2023-09-12T00:57:59;31.40;1.00
10864;DHT22;5485;37.558;126.950;2023-09-12T01:00:27;31.20;1.00
10864;DHT22;5485;37.558;126.950;2023-09-12T01:02:54;31.10;1.00
10864;DHT22;5485;37.558;126.950;2023-09-12T01:05:22;30.80;1.00
10864;DHT22;5485;37.558;126.950;2023-09-12T01:07:49;30.80;1.00
10864;DHT22;5485;37.558;126.950;2023-09-12T01:10:16;30.80;1.00
10864;DHT22;5485;37.558;126.950;2023-09-12T01:12:44;30.80;1.00
10864;DHT22;5485;37.558;126.950;2023-09-12T01:15:11;31.40;1.00
10864;DHT22;5485;37.558;126.950;2023-09-12T01:17:44;31.60;1.00
10864;DHT22;5485;37.558;126.950;2023-09-12T01:20:23;32.30;1.00
10864;DHT22;5485;37.558;126.950;2023-09-12T01:23:15;32.60;1.00
10864;DHT22;5485;37.558;126.950;2023-09-12T01:28:37;32.70;1.00
10864;DHT22;5485;37.558;126.950;2023-09-12T01:31:09;33.50;1.00
10864;DHT22;5485;37.558;126.950;2023-09-12T01:33:36;34.00;1.00
10864;DHT22;5485;37.558;126.950;2023-09-12T01:36:03;33.70;1.00
10864;DHT22;5485;37.558;126.950;2023-09-12T01:38:30;33.70;1.00
10864;DHT22;5485;37.558;126.950;2023-09-12T01:40:57;33.40;1.00
10864;DHT22;5485;37.558;126.950;2023-09-12T01:43:28;33.20;1.00
10864;DHT22;5485;37.558;126.950;2023-09-12T01:45:58;33.10;1.00
10864;DHT22;5485;37.558;126.950;2023-09-12T01:48:30;33.00;1.00
10864;DHT22;5485;37.558;126.950;2023-09-12T01:51:00;33.00;1.00
10864;DHT22;5485;37.558;126.950;2023-09-12T01:53:28;33.30;1.00
10864;DHT22;5485;37.558;126.950;2023-09-12T01:55:58;33.30;1.00
10864;DHT22;5485;37.558;126.950;2023-09-12T01:58:26;33.10;1.00
10864;DHT22;5485;37.558;126.950;2023-09-12T02:00:53;33.00;1.00
10864;DHT22;5485;37.558;126.950;2023-09-12T02:03:20;33.00;1.00
10864;DHT22;5485;37.558;126.950;2023-09-12T02:05:52;33.00;1.00
10864;DHT22;5485;37.558;126.950;2023-09-12T02:08:20;32.90;1.00
10864;DHT22;5485;37.558;126.950;2023-09-12T02:10:47;32.10;1.00
10864;DHT22;5485;37.558;126.950;2023-09-12T02:13:16;32.10;1.00
10864;DHT22;5485;37.558;126.950;2023-09-12T02:15:43;32.00;1.00
10864;DHT22;5485;37.558;126.950;2023-09-12T02:18:11;31.90;1.00
10864;DHT22;5485;37.558;126.950;2023-09-12T02:20:41;31.70;1.00
10864;DHT22;5485;37.558;126.950;2023-09-12T02:23:12;31.10;1.00
10864;DHT22;5485;37.558;126.950;2023-09-12T02:25:38;31.00;1.00
10864;DHT22;5485;37.558;126.950;2023-09-12T02:28:05;31.30;1.00
10864;DHT22;5485;37.558;126.950;2023-09-12T02:30:32;31.30;1.00
10864;DHT22;5485;37.558;126.950;2023-09-12T02:32:59;31.20;1.00
10864;DHT22;5485;37.558;126.950;2023-09-12T02:35:28;31.20;1.00
10864;DHT22;5485;37.558;126.950;2023-09-12T02:37:55;31.10;1.00
10864;DHT22;5485;37.558;126.950;2023-09-12T02:40:21;30.70;1.00
10864;DHT22;5485;37.558;126.950;2023-09-12T02:42:51;30.80;1.00
10864;DHT22;5485;37.558;126.950;2023-09-12T02:45:18;30.80;1.00
10864;DHT22;5485;37.558;126.950;2023-09-12T02:47:44;30.90;1.00
10864;DHT22;5485;37.558;126.950;2023-09-12T02:50:12;30.90;1.00
10864;DHT22;5485;37.558;126.950;2023-09-12T02:52:40;31.00;1.00
10864;DHT22;5485;37.558;126.950;2023-09-12T02:55:07;31.10;1.00
10864;DHT22;5485;37.558;126.950;2023-09-12T02:57:34;31.10;1.00
10864;DHT22;5485;37.558;126.950;2023-09-12T03:00:04;31.20;1.00
10864;DHT22;5485;37.558;126.950;2023-09-12T03:02:33;31.10;1.00
10864;DHT22;5485;37.558;126.950;2023-09-12T03:05:00;30.90;1.00
10864;DHT22;5485;37.558;126.950;2023-09-12T03:07:30;30.80;1.00
10864;DHT22;5485;37.558;126.950;2023-09-12T03:09:57;30.90;1.00
10864;DHT22;5485;37.558;126.950;2023-09-12T03:12:23;30.60;1.00
10864;DHT22;5485;37.558;126.950;2023-09-12T03:14:50;30.40;1.00
10864;DHT22;5485;37.558;126.950;2023-09-12T03:17:17;30.20;1.00
10864;DHT22;5485;37.558;126.950;2023-09-12T03:19:44;30.40;1.00
10864;DHT22;5485;37.558;126.950;2023-09-12T03:22:11;30.30;1.00
10864;DHT22;5485;37.558;126.950;2023-09-12T03:24:39;30.20;1.00
10864;DHT22;5485;37.558;126.950;2023-09-12T03:27:07;29.90;1.00
10864;DHT22;5485;37.558;126.950;2023-09-12T03:29:34;29.80;1.00
10864;DHT22;5485;37.558;126.950;2023-09-12T03:32:01;29.60;1.00
10864;DHT22;5485;37.558;126.950;2023-09-12T03:34:33;29.70;1.00
10864;DHT22;5485;37.558;126.950;2023-09-12T03:37:02;29.60;1.00
10864;DHT22;5485;37.558;126.950;2023-09-12T03:39:29;29.50;1.00
10864;DHT22;5485;37.558;126.950;2023-09-12T03:41:56;29.60;1.00
10864;DHT22;5485;37.558;126.950;2023-09-12T03:44:27;29.70;1.00
10864;DHT22;5485;37.558;126.950;2023-09-12T03:46:54;29.80;1.00
10864;DHT22;5485;37.558;126.950;2023-09-12T03:49:21;29.90;1.00
10864;DHT22;5485;37.558;126.950;2023-09-12T03:51:48;29.90;1.00
10864;DHT22;5485;37.558;126.950;2023-09-12T03:54:15;29.70;1.00
10864;DHT22;5485;37.558;126.950;2023-09-12T03:56:42;29.50;1.00
10864;DHT22;5485;37.558;126.950;2023-09-12T03:59:09;29.60;1.00
10864;DHT22;5485;37.558;126.950;2023-09-12T04:01:36;29.80;1.00
10864;DHT22;5485;37.558;126.950;2023-09-12T04:04:04;30.00;1.00
10864;DHT22;5485;37.558;126.950;2023-09-12T04:06:31;30.40;1.00
10864;DHT22;5485;37.558;126.950;2023-09-12T04:08:57;30.40;1.00
10864;DHT22;5485;37.558;126.950;2023-09-12T04:11:24;30.10;1.00
10864;DHT22;5485;37.558;126.950;2023-09-12T04:13:51;30.00;1.00
10864;DHT22;5485;37.558;126.950;2023-09-12T04:16:18;30.00;1.00
10864;DHT22;5485;37.558;126.950;2023-09-12T04:18:49;30.10;1.00
10864;DHT22;5485;37.558;126.950;2023-09-12T04:21:16;30.20;1.00
10864;DHT22;5485;37.558;126.950;2023-09-12T04:23:43;30.30;1.00
10864;DHT22;5485;37.558;126.950;2023-09-12T04:26:09;30.10;1.00
10864;DHT22;5485;37.558;126.950;2023-09-12T04:28:36;30.00;1.00
10864;DHT22;5485;37.558;126.950;2023-09-12T04:31:04;29.90;1.00
10864;DHT22;5485;37.558;126.950;2023-09-12T04:33:30;29.70;1.00
10864;DHT22;5485;37.558;126.950;2023-09-12T04:36:03;29.70;1.00
10864;DHT22;5485;37.558;126.950;2023-09-12T04:38:33;30.00;1.00
10864;DHT22;5485;37.558;126.950;2023-09-12T04:41:01;29.60;1.00
10864;DHT22;5485;37.558;126.950;2023-09-12T04:43:29;29.50;1.00
10864;DHT22;5485;37.558;126.950;2023-09-12T04:45:56;29.50;1.00
10864;DHT22;5485;37.558;126.950;2023-09-12T04:48:23;29.40;1.00
10864;DHT22;5485;37.558;126.950;2023-09-12T04:50:50;29.40;1.00
10864;DHT22;5485;37.558;126.950;2023-09-12T04:53:17;29.70;1.00
10864;DHT22;5485;37.558;126.950;2023-09-12T04:55:44;29.70;1.00
10864;DHT22;5485;37.558;126.950;2023-09-12T04:58:11;29.70;1.00
10864;DHT22;5485;37.558;126.950;2023-09-12T05:00:39;29.50;1.00
10864;DHT22;5485;37.558;126.950;2023-09-12T05:03:07;29.50;1.00
10864;DHT22;5485;37.558;126.950;2023-09-12T05:05:35;29.40;1.00
10864;DHT22;5485;37.558;126.950;2023-09-12T05:08:03;29.50;1.00
10864;DHT22;5485;37.558;126.950;2023-09-12T05:10:30;29.50;1.00
10864;DHT22;5485;37.558;126.950;2023-09-12T05:12:57;29.60;1.00
10864;DHT22;5485;37.558;126.950;2023-09-12T05:15:24;29.70;1.00
10864;DHT22;5485;37.558;126.950;2023-09-12T05:17:51;29.70;1.00
10864;DHT22;5485;37.558;126.950;2023-09-12T05:20:18;29.50;1.00
10864;DHT22;5485;37.558;126.950;2023-09-12T05:22:45;29.60;1.00
10864;DHT22;5485;37.558;126.950;2023-09-12T05:25:12;29.60;1.00
10864;DHT22;5485;37.558;126.950;2023-09-12T05:27:38;29.90;1.00
10864;DHT22;5485;37.558;126.950;2023-09-12T05:30:06;29.90;1.00
10864;DHT22;5485;37.558;126.950;2023-09-12T05:32:33;30.10;1.00
10864;DHT22;5485;37.558;126.950;2023-09-12T05:35:00;30.20;1.00
10864;DHT22;5485;37.558;126.950;2023-09-12T05:37:26;30.10;1.00
10864;DHT22;5485;37.558;126.950;2023-09-12T05:39:54;29.80;1.00
10864;DHT22;5485;37.558;126.950;2023-09-12T05:42:21;29.60;1.00
10864;DHT22;5485;37.558;126.950;2023-09-12T05:44:49;29.70;1.00
10864;DHT22;5485;37.558;126.950;2023-09-12T05:47:18;29.70;1.00
10864;DHT22;5485;37.558;126.950;2023-09-12T05:49:45;29.60;1.00
10864;DHT22;5485;37.558;126.950;2023-09-12T05:52:12;29.80;1.00
10864;DHT22;5485;37.558;126.950;2023-09-12T05:54:39;29.90;1.00
10864;DHT22;5485;37.558;126.950;2023-09-12T05:57:10;29.70;1.00
10864;DHT22;5485;37.558;126.950;2023-09-12T05:59:39;29.70;1.00
10864;DHT22;5485;37.558;126.950;2023-09-12T06:02:06;29.80;1.00
10864;DHT22;5485;37.558;126.950;2023-09-12T06:04:35;29.90;1.00
10864;DHT22;5485;37.558;126.950;2023-09-12T06:07:03;29.90;1.00
10864;DHT22;5485;37.558;126.950;2023-09-12T06:09:30;29.90;1.00
10864;DHT22;5485;37.558;126.950;2023-09-12T06:11:57;29.60;1.00
10864;DHT22;5485;37.558;126.950;2023-09-12T06:14:24;29.50;1.00
10864;DHT22;5485;37.558;126.950;2023-09-12T06:16:51;29.30;1.00
10864;DHT22;5485;37.558;126.950;2023-09-12T06:19:18;29.30;1.00
10864;DHT22;5485;37.558;126.950;2023-09-12T06:21:48;29.30;1.00
10864;DHT22;5485;37.558;126.950;2023-09-12T06:24:20;29.40;1.00
10864;DHT22;5485;37.558;126.950;2023-09-12T06:26:50;29.50;1.00
10864;DHT22;5485;37.558;126.950;2023-09-12T06:29:17;29.00;1.00
10864;DHT22;5485;37.558;126.950;2023-09-12T06:31:46;29.50;1.00
10864;DHT22;5485;37.558;126.950;2023-09-12T06:34:14;29.50;1.00
10864;DHT22;5485;37.558;126.950;2023-09-12T06:36:41;29.60;1.00
10864;DHT22;5485;37.558;126.950;2023-09-12T06:39:16;29.70;1.00
10864;DHT22;5485;37.558;126.950;2023-09-12T06:41:44;29.60;1.00
10864;DHT22;5485;37.558;126.950;2023-09-12T06:44:10;29.50;1.00
10864;DHT22;5485;37.558;126.950;2023-09-12T06:46:38;29.40;1.00
10864;DHT22;5485;37.558;126.950;2023-09-12T06:49:04;29.30;1.00
10864;DHT22;5485;37.558;126.950;2023-09-12T06:51:31;29.30;1.00
10864;DHT22;5485;37.558;126.950;2023-09-12T06:53:58;29.40;1.00
10864;DHT22;5485;37.558;126.950;2023-09-12T06:56:25;29.50;1.00
10864;DHT22;5485;37.558;126.950;2023-09-12T06:58:54;29.60;1.00
10864;DHT22;5485;37.558;126.950;2023-09-12T07:01:22;29.60;1.00
10864;DHT22;5485;37.558;126.950;2023-09-12T07:03:48;29.60;1.00
10864;DHT22;5485;37.558;126.950;2023-09-12T07:06:20;29.60;1.00
10864;DHT22;5485;37.558;126.950;2023-09-12T07:08:47;29.50;1.00
10864;DHT22;5485;37.558;126.950;2023-09-12T07:11:14;29.50;1.00
10864;DHT22;5485;37.558;126.950;2023-09-12T07:13:40;29.40;1.00
10864;DHT22;5485;37.558;126.950;2023-09-12T07:16:07;29.40;1.00
10864;DHT22;5485;37.558;126.950;2023-09-12T07:18:34;29.50;1.00
10864;DHT22;5485;37.558;126.950;2023-09-12T07:21:04;29.40;1.00
10864;DHT22;5485;37.558;126.950;2023-09-12T07:23:31;29.30;1.00
10864;DHT22;5485;37.558;126.950;2023-09-12T07:25:58;29.30;1.00
10864;DHT22;5485;37.558;126.950;2023-09-12T07:28:26;29.40;1.00
10864;DHT22;5485;37.558;126.950;2023-09-12T07:30:54;29.40;1.00
10864;DHT22;5485;37.558;126.950;2023-09-12T07:33:21;29.20;1.00
10864;DHT22;5485;37.558;126.950;2023-09-12T07:35:49;29.10;1.00
10864;DHT22;5485;37.558;126.950;2023-09-12T07:38:20;29.00;1.00
10864;DHT22;5485;37.558;126.950;2023-09-12T07:40:47;29.00;1.00
10864;DHT22;5485;37.558;126.950;2023-09-12T07:43:15;29.10;1.00
10864;DHT22;5485;37.558;126.950;2023-09-12T07:45:42;29.10;1.00
10864;DHT22;5485;37.558;126.950;2023-09-12T07:48:11;29.10;1.00
10864;DHT22;5485;37.558;126.950;2023-09-12T07:50:38;29.10;1.00
10864;DHT22;5485;37.558;126.950;2023-09-12T07:53:08;29.10;1.00
10864;DHT22;5485;37.558;126.950;2023-09-12T07:55:38;29.10;1.00
10864;DHT22;5485;37.558;126.950;2023-09-12T07:58:15;29.00;1.00
10864;DHT22;5485;37.558;126.950;2023-09-12T08:00:44;29.00;1.00
10864;DHT22;5485;37.558;126.950;2023-09-12T08:03:11;28.90;1.00
10864;DHT22;5485;37.558;126.950;2023-09-12T08:05:37;28.80;1.00
10864;DHT22;5485;37.558;126.950;2023-09-12T08:08:08;28.80;1.00
10864;DHT22;5485;37.558;126.950;2023-09-12T08:10:34;28.70;1.00
10864;DHT22;5485;37.558;126.950;2023-09-12T08:13:01;28.70;1.00
10864;DHT22;5485;37.558;126.950;2023-09-12T08:15:28;28.60;1.00
10864;DHT22;5485;37.558;126.950;2023-09-12T08:17:55;28.60;1.00
10864;DHT22;5485;37.558;126.950;2023-09-12T08:20:22;28.50;1.00
10864;DHT22;5485;37.558;126.950;2023-09-12T08:22:49;28.50;1.00
10864;DHT22;5485;37.558;126.950;2023-09-12T08:25:16;28.50;1.00
10864;DHT22;5485;37.558;126.950;2023-09-12T08:27:43;28.50;1.00
10864;DHT22;5485;37.558;126.950;2023-09-12T08:30:12;28.50;1.00
10864;DHT22;5485;37.558;126.950;2023-09-12T08:32:40;28.40;1.00
10864;DHT22;5485;37.558;126.950;2023-09-12T08:35:13;28.40;1.00
10864;DHT22;5485;37.558;126.950;2023-09-12T08:37:42;28.40;1.00
10864;DHT22;5485;37.558;126.950;2023-09-12T08:40:10;28.40;1.00
10864;DHT22;5485;37.558;126.950;2023-09-12T08:42:41;28.40;1.00
10864;DHT22;5485;37.558;126.950;2023-09-12T08:45:12;28.50;1.00
10864;DHT22;5485;37.558;126.950;2023-09-12T08:47:45;28.40;1.00
10864;DHT22;5485;37.558;126.950;2023-09-12T08:50:14;28.40;1.00
10864;DHT22;5485;37.558;126.950;2023-09-12T08:52:43;28.40;1.00
10864;DHT22;5485;37.558;126.950;2023-09-12T08:55:11;28.40;1.00
10864;DHT22;5485;37.558;126.950;2023-09-12T08:57:42;28.30;1.00
10864;DHT22;5485;37.558;126.950;2023-09-12T09:00:10;28.30;1.00
10864;DHT22;5485;37.558;126.950;2023-09-12T09:02:41;28.20;1.00
10864;DHT22;5485;37.558;126.950;2023-09-12T09:05:10;28.10;1.00
10864;DHT22;5485;37.558;126.950;2023-09-12T09:07:39;28.00;1.00
10864;DHT22;5485;37.558;126.950;2023-09-12T09:10:08;27.90;1.00
10864;DHT22;5485;37.558;126.950;2023-09-12T09:12:36;27.90;1.00
10864;DHT22;5485;37.558;126.950;2023-09-12T09:15:28;27.80;1.00
10864;DHT22;5485;37.558;126.950;2023-09-12T09:17:58;27.80;1.00
10864;DHT22;5485;37.558;126.950;2023-09-12T09:20:31;27.70;1.00
10864;DHT22;5485;37.558;126.950;2023-09-12T09:23:01;27.60;1.00
10864;DHT22;5485;37.558;126.950;2023-09-12T09:25:43;27.50;1.00
10864;DHT22;5485;37.558;126.950;2023-09-12T09:28:19;27.50;1.00
10864;DHT22;5485;37.558;126.950;2023-09-12T09:30:54;27.40;1.00
10864;DHT22;5485;37.558;126.950;2023-09-12T09:33:22;27.30;1.00
10864;DHT22;5485;37.558;126.950;2023-09-12T09:35:49;27.20;1.00
10864;DHT22;5485;37.558;126.950;2023-09-12T09:38:22;27.10;1.00
10864;DHT22;5485;37.558;126.950;2023-09-12T09:40:50;27.00;1.00
10864;DHT22;5485;37.558;126.950;2023-09-12T09:43:21;27.00;1.00
10864;DHT22;5485;37.558;126.950;2023-09-12T09:45:48;26.90;1.00
10864;DHT22;5485;37.558;126.950;2023-09-12T09:48:20;26.80;1.00
10864;DHT22;5485;37.558;126.950;2023-09-12T09:50:47;26.70;1.00
10864;DHT22;5485;37.558;126.950;2023-09-12T09:53:14;26.70;1.00
10864;DHT22;5485;37.558;126.950;2023-09-12T09:55:41;26.50;1.00
10864;DHT22;5485;37.558;126.950;2023-09-12T09:58:15;26.50;1.00
10864;DHT22;5485;37.558;126.950;2023-09-12T10:00:48;26.50;1.00
10864;DHT22;5485;37.558;126.950;2023-09-12T10:03:19;26.40;1.00
10864;DHT22;5485;37.558;126.950;2023-09-12T10:05:54;26.40;1.00
10864;DHT22;5485;37.558;126.950;2023-09-12T10:08:23;26.40;1.00
10864;DHT22;5485;37.558;126.950;2023-09-12T10:10:51;26.40;1.00
10864;DHT22;5485;37.558;126.950;2023-09-12T10:13:19;26.40;1.00
10864;DHT22;5485;37.558;126.950;2023-09-12T10:15:49;26.30;1.00
10864;DHT22;5485;37.558;126.950;2023-09-12T10:18:20;26.30;1.00
10864;DHT22;5485;37.558;126.950;2023-09-12T10:20:58;26.30;1.00
10864;DHT22;5485;37.558;126.950;2023-09-12T10:23:44;26.20;1.00
10864;DHT22;5485;37.558;126.950;2023-09-12T10:26:17;26.10;1.00
10864;DHT22;5485;37.558;126.950;2023-09-12T10:28:47;26.60;1.00
10864;DHT22;5485;37.558;126.950;2023-09-12T10:31:15;26.10;1.00
10864;DHT22;5485;37.558;126.950;2023-09-12T10:33:43;26.00;1.00
10864;DHT22;5485;37.558;126.950;2023-09-12T10:36:15;26.00;1.00
10864;DHT22;5485;37.558;126.950;2023-09-12T10:38:45;26.00;1.00
10864;DHT22;5485;37.558;126.950;2023-09-12T10:41:14;25.90;1.00
10864;DHT22;5485;37.558;126.950;2023-09-12T10:43:43;25.90;1.00
10864;DHT22;5485;37.558;126.950;2023-09-12T10:46:13;25.90;1.00
10864;DHT22;5485;37.558;126.950;2023-09-12T10:48:40;25.90;1.00
10864;DHT22;5485;37.558;126.950;2023-09-12T10:51:08;25.90;1.00
10864;DHT22;5485;37.558;126.950;2023-09-12T10:53:36;25.90;1.00
10864;DHT22;5485;37.558;126.950;2023-09-12T10:56:21;25.90;1.00
10864;DHT22;5485;37.558;126.950;2023-09-12T10:59:12;25.90;1.00
10864;DHT22;5485;37.558;126.950;2023-09-12T11:01:41;25.80;1.00
10864;DHT22;5485;37.558;126.950;2023-09-12T11:04:30;25.80;1.00
10864;DHT22;5485;37.558;126.950;2023-09-12T11:06:59;26.00;1.00
10864;DHT22;5485;37.558;126.950;2023-09-12T11:09:27;25.70;1.00
10864;DHT22;5485;37.558;126.950;2023-09-12T11:11:58;25.70;1.00
10864;DHT22;5485;37.558;126.950;2023-09-12T11:14:25;25.70;1.00
10864;DHT22;5485;37.558;126.950;2023-09-12T11:19:48;25.70;1.00
10864;DHT22;5485;37.558;126.950;2023-09-12T11:22:27;25.60;1.00
10864;DHT22;5485;37.558;126.950;2023-09-12T11:24:55;25.50;1.00
10864;DHT22;5485;37.558;126.950;2023-09-12T11:27:30;25.50;1.00
10864;DHT22;5485;37.558;126.950;2023-09-12T11:30:06;25.40;1.00
10864;DHT22;5485;37.558;126.950;2023-09-12T11:32:36;25.30;1.00
10864;DHT22;5485;37.558;126.950;2023-09-12T11:35:08;25.20;1.00
10864;DHT22;5485;37.558;126.950;2023-09-12T11:37:35;25.20;4.00
10864;DHT22;5485;37.558;126.950;2023-09-12T11:42:42;25.10;14.10
10864;DHT22;5485;37.558;126.950;2023-09-12T11:45:09;25.10;18.00
10864;DHT22;5485;37.558;126.950;2023-09-12T11:47:44;25.10;19.20
10864;DHT22;5485;37.558;126.950;2023-09-12T11:50:31;25.10;25.40
10864;DHT22;5485;37.558;126.950;2023-09-12T11:53:08;25.00;34.60
10864;DHT22;5485;37.558;126.950;2023-09-12T11:55:46;25.00;44.20
10864;DHT22;5485;37.558;126.950;2023-09-12T11:58:15;25.00;46.50
10864;DHT22;5485;37.558;126.950;2023-09-12T12:00:55;25.00;54.80
10864;DHT22;5485;37.558;126.950;2023-09-12T12:03:26;25.00;48.10
10864;DHT22;5485;37.558;126.950;2023-09-12T12:05:57;25.10;45.20
10864;DHT22;5485;37.558;126.950;2023-09-12T12:08:24;25.10;41.10
10864;DHT22;5485;37.558;126.950;2023-09-12T12:10:52;25.00;45.40
10864;DHT22;5485;37.558;126.950;2023-09-12T12:13:21;25.00;41.50
10864;DHT22;5485;37.558;126.950;2023-09-12T12:15:48;24.90;38.10
10864;DHT22;5485;37.558;126.950;2023-09-12T12:18:16;24.90;37.60
10864;DHT22;5485;37.558;126.950;2023-09-12T12:20:43;24.90;30.70
10864;DHT22;5485;37.558;126.950;2023-09-12T12:23:10;24.90;24.90
10864;DHT22;5485;37.558;126.950;2023-09-12T12:25:37;24.90;22.20
10864;DHT22;5485;37.558;126.950;2023-09-12T12:28:04;24.80;18.50
10864;DHT22;5485;37.558;126.950;2023-09-12T12:30:34;24.80;13.90
10864;DHT22;5485;37.558;126.950;2023-09-12T12:33:06;24.80;11.40
10864;DHT22;5485;37.558;126.950;2023-09-12T12:35:33;24.90;11.00
10864;DHT22;5485;37.558;126.950;2023-09-12T12:38:00;24.80;9.50
10864;DHT22;5485;37.558;126.950;2023-09-12T12:40:27;24.90;9.70
10864;DHT22;5485;37.558;126.950;2023-09-12T12:43:02;24.90;10.60
10864;DHT22;5485;37.558;126.950;2023-09-12T12:45:29;24.90;5.50
10864;DHT22;5485;37.558;126.950;2023-09-12T12:48:00;25.00;4.80
10864;DHT22;5485;37.558;126.950;2023-09-12T12:50:36;24.90;1.00
10864;DHT22;5485;37.558;126.950;2023-09-12T12:53:03;24.90;1.00
10864;DHT22;5485;37.558;126.950;2023-09-12T12:55:30;24.90;1.00
10864;DHT22;5485;37.558;126.950;2023-09-12T12:58:04;24.90;1.00
10864;DHT22;5485;37.558;126.950;2023-09-12T13:00:32;24.90;1.00
10864;DHT22;5485;37.558;126.950;2023-09-12T13:02:59;24.90;1.00
10864;DHT22;5485;37.558;126.950;2023-09-12T13:05:30;24.80;1.00
10864;DHT22;5485;37.558;126.950;2023-09-12T13:07:58;24.80;1.00
10864;DHT22;5485;37.558;126.950;2023-09-12T13:10:24;24.80;1.00
10864;DHT22;5485;37.558;126.950;2023-09-12T13:12:51;24.90;1.00
10864;DHT22;5485;37.558;126.950;2023-09-12T13:15:20;24.80;1.00
10864;DHT22;5485;37.558;126.950;2023-09-12T13:17:47;24.80;1.00
10864;DHT22;5485;37.558;126.950;2023-09-12T13:20:15;24.80;1.00
10864;DHT22;5485;37.558;126.950;2023-09-12T13:22:42;24.80;1.00
10864;DHT22;5485;37.558;126.950;2023-09-12T13:25:09;24.70;1.00
10864;DHT22;5485;37.558;126.950;2023-09-12T13:27:36;24.70;1.00
10864;DHT22;5485;37.558;126.950;2023-09-12T13:30:03;24.60;1.00
10864;DHT22;5485;37.558;126.950;2023-09-12T13:32:31;24.60;1.00
10864;DHT22;5485;37.558;126.950;2023-09-12T13:34:59;24.60;1.00
10864;DHT22;5485;37.558;126.950;2023-09-12T13:37:26;24.60;1.00
10864;DHT22;5485;37.558;126.950;2023-09-12T13:39:54;24.60;1.00
10864;DHT22;5485;37.558;126.950;2023-09-12T13:42:21;24.60;1.00
10864;DHT22;5485;37.558;126.950;2023-09-12T13:44:48;24.60;1.00
10864;DHT22;5485;37.558;126.950;2023-09-12T13:47:15;24.60;1.00
10864;DHT22;5485;37.558;126.950;2023-09-12T13:49:49;24.60;1.00
10864;DHT22;5485;37.558;126.950;2023-09-12T13:52:19;24.60;1.00
10864;DHT22;5485;37.558;126.950;2023-09-12T13:54:46;24.70;1.00
10864;DHT22;5485;37.558;126.950;2023-09-12T13:57:12;24.70;1.00
10864;DHT22;5485;37.558;126.950;2023-09-12T13:59:39;24.70;1.00
10864;DHT22;5485;37.558;126.950;2023-09-12T14:02:06;24.70;1.00
10864;DHT22;5485;37.558;126.950;2023-09-12T14:04:33;24.70;1.00
10864;DHT22;5485;37.558;126.950;2023-09-12T14:07:01;24.70;1.00
10864;DHT22;5485;37.558;126.950;2023-09-12T14:09:29;24.70;1.00
10864;DHT22;5485;37.558;126.950;2023-09-12T14:11:56;24.80;1.00
10864;DHT22;5485;37.558;126.950;2023-09-12T14:14:22;24.80;1.00
10864;DHT22;5485;37.558;126.950;2023-09-12T14:16:49;24.80;1.00
10864;DHT22;5485;37.558;126.950;2023-09-12T14:19:16;24.80;1.00
10864;DHT22;5485;37.558;126.950;2023-09-12T14:21:48;24.80;1.00
10864;DHT22;5485;37.558;126.950;2023-09-12T14:24:22;24.80;1.00
10864;DHT22;5485;37.558;126.950;2023-09-12T14:26:49;24.80;1.00
10864;DHT22;5485;37.558;126.950;2023-09-12T14:29:16;24.70;1.00
10864;DHT22;5485;37.558;126.950;2023-09-12T14:31:43;24.70;1.00
10864;DHT22;5485;37.558;126.950;2023-09-12T14:34:19;24.70;1.00
10864;DHT22;5485;37.558;126.950;2023-09-12T14:36:48;24.60;1.00
10864;DHT22;5485;37.558;126.950;2023-09-12T14:39:15;24.60;1.00
10864;DHT22;5485;37.558;126.950;2023-09-12T14:41:42;24.60;1.00
10864;DHT22;5485;37.558;126.950;2023-09-12T14:44:10;24.60;1.00
10864;DHT22;5485;37.558;126.950;2023-09-12T14:46:36;24.60;1.00
10864;DHT22;5485;37.558;126.950;2023-09-12T14:49:03;24.60;1.00
10864;DHT22;5485;37.558;126.950;2023-09-12T14:51:34;24.70;1.00
10864;DHT22;5485;37.558;126.950;2023-09-12T14:54:05;24.70;1.00
10864;DHT22;5485;37.558;126.950;2023-09-12T14:56:35;24.80;1.00
10864;DHT22;5485;37.558;126.950;2023-09-12T14:59:05;24.80;1.00
10864;DHT22;5485;37.558;126.950;2023-09-12T15:01:32;24.80;1.00
10864;DHT22;5485;37.558;126.950;2023-09-12T15:04:01;24.80;1.00
10864;DHT22;5485;37.558;126.950;2023-09-12T15:06:28;24.80;1.00
10864;DHT22;5485;37.558;126.950;2023-09-12T15:09:01;24.80;1.00
10864;DHT22;5485;37.558;126.950;2023-09-12T15:11:28;24.90;1.00
10864;DHT22;5485;37.558;126.950;2023-09-12T15:13:55;25.00;1.00
10864;DHT22;5485;37.558;126.950;2023-09-12T15:16:21;25.00;1.00
10864;DHT22;5485;37.558;126.950;2023-09-12T15:18:49;24.90;1.00
10864;DHT22;5485;37.558;126.950;2023-09-12T15:21:18;24.90;1.00
10864;DHT22;5485;37.558;126.950;2023-09-12T15:23:44;24.80;1.00
10864;DHT22;5485;37.558;126.950;2023-09-12T15:26:11;24.80;1.00
10864;DHT22;5485;37.558;126.950;2023-09-12T15:28:38;24.80;1.00
10864;DHT22;5485;37.558;126.950;2023-09-12T15:31:05;24.80;1.00
10864;DHT22;5485;37.558;126.950;2023-09-12T15:33:32;24.80;1.00
10864;DHT22;5485;37.558;126.950;2023-09-12T15:35:59;24.80;1.00
10864;DHT22;5485;37.558;126.950;2023-09-12T15:38:28;24.80;1.00
10864;DHT22;5485;37.558;126.950;2023-09-12T15:40:55;24.80;1.00
10864;DHT22;5485;37.558;126.950;2023-09-12T15:43:23;24.80;1.00
10864;DHT22;5485;37.558;126.950;2023-09-12T15:45:50;24.80;1.00
10864;DHT22;5485;37.558;126.950;2023-09-12T15:48:17;24.70;1.00